Time;durP1;ratioP1;P1;durP2;ratioP2;P2;SDS_P1;SDS_P2;PMS_P1;PMS_P2;Temp;Humidity;BMP_temperature;BMP_pressure;BME280_temperature;BME280_humidity;BME280_pressure;Samples;Min_cycle;Max_cycle;Signal;HPM_P1;HPM_P2
2023/06/13 00:02:07;;;;;;;8.55;2.42;;;;;;;14.46;100.00;99194.84;5157902;27;20419;-59
2023/06/13 00:04:33;;;;;;;13.07;2.75;;;;;;;14.25;100.00;99179.81;5157726;27;20087;-57
2023/06/13 00:06:59;;;;;;;9.63;2.72;;;;;;;14.29;100.00;99166.81;5158099;27;20073;-55
2023/06/13 00:09:25;;;;;;;5.70;2.53;;;;;;;14.22;100.00;99152.22;5157814;27;20435;-53
2023/06/13 00:11:51;;;;;;;11.13;2.80;;;;;;;14.25;100.00;99154.22;5158030;27;20064;-57
2023/06/13 00:14:18;;;;;;;11.30;2.53;;;;;;;14.38;100.00;99158.19;5157648;27;20055;-51
2023/06/13 00:16:47;;;;;;;6.93;2.78;;;;;;;14.40;100.00;99168.84;5158072;27;20342;-52
2023/06/13 00:19:13;;;;;;;6.40;2.65;;;;;;;14.25;100.00;99157.75;5157670;27;20047;-59
2023/06/13 00:21:40;;;;;;;3.92;2.08;;;;;;;14.22;100.00;99141.19;5158084;27;20055;-59
2023/06/13 00:24:06;;;;;;;4.38;2.47;;;;;;;14.15;100.00;99143.94;5157522;27;20402;-52
2023/06/13 00:26:32;;;;;;;4.10;2.30;;;;;;;14.22;100.00;99130.16;5157806;27;20050;-55
2023/06/13 00:28:58;;;;;;;10.15;2.42;;;;;;;14.27;100.00;99138.84;5157668;27;20047;-53
2023/06/13 00:31:28;;;;;;;3.55;2.25;;;;;;;14.13;100.00;99120.31;5157720;27;20046;-55
2023/06/13 00:33:55;;;;;;;12.18;2.50;;;;;;;14.14;100.00;99123.84;5157568;27;20049;-50
2023/06/13 00:36:21;;;;;;;7.85;2.85;;;;;;;14.12;100.00;99127.00;5157569;27;20129;-53
2023/06/13 00:38:48;;;;;;;2.78;2.17;;;;;;;14.05;100.00;99128.94;5157764;27;20057;-60
2023/06/13 00:41:14;;;;;;;9.50;2.67;;;;;;;14.04;100.00;99128.16;5157466;27;20332;-50
2023/06/13 00:43:40;;;;;;;4.15;2.50;;;;;;;13.96;100.00;99110.03;5157776;27;20054;-53
2023/06/13 00:46:06;;;;;;;8.43;2.83;;;;;;;13.92;100.00;99103.69;5157361;27;20054;-55
2023/06/13 00:48:33;;;;;;;5.43;2.78;;;;;;;13.88;100.00;99089.91;5161272;27;20050;-60
2023/06/13 00:51:02;;;;;;;9.07;3.55;;;;;;;13.94;100.00;99095.06;5160766;27;20419;-55
2023/06/13 00:53:31;;;;;;;7.70;2.80;;;;;;;13.72;100.00;99067.41;5160723;27;20057;-51
2023/06/13 00:55:58;;;;;;;6.10;2.65;;;;;;;13.75;100.00;99066.63;5160951;27;20050;-51
2023/06/13 00:58:24;;;;;;;6.90;2.72;;;;;;;13.65;100.00;99073.69;5160942;27;20138;-56
2023/06/13 01:00:52;;;;;;;8.73;2.60;;;;;;;13.74;100.00;99050.50;5160780;27;20365;-52
2023/06/13 01:03:19;;;;;;;10.35;3.70;;;;;;;13.75;100.00;99068.59;5160511;27;20046;-52
2023/06/13 01:05:46;;;;;;;4.13;2.65;;;;;;;13.85;100.00;99065.09;5160785;27;20138;-55
2023/06/13 01:08:16;;;;;;;9.30;3.00;;;;;;;13.66;100.00;99057.94;5160645;27;20057;-53
2023/06/13 01:10:46;;;;;;;6.68;2.30;;;;;;;13.66;100.00;99055.19;5160984;27;20047;-50
2023/06/13 01:13:20;;;;;;;3.88;2.47;;;;;;;13.48;100.00;99044.13;5160334;27;20145;-55
2023/06/13 01:15:49;;;;;;;;;;;;;;;13.32;100.00;99027.13;5161279;27;20065;-60
2023/06/13 01:18:24;;;;;;;3.40;2.20;;;;;;;13.48;100.00;99022.09;5160639;27;19949;-51
2023/06/13 01:20:56;;;;;;;9.75;4.72;;;;;;;13.59;100.00;99033.91;5160402;27;20141;-55
2023/06/13 01:23:30;;;;;;;5.57;1.90;;;;;;;13.32;100.00;99016.09;5160565;27;20042;-51
2023/06/13 01:26:04;;;;;;;11.27;3.10;;;;;;;13.31;100.00;98996.06;5160364;27;20145;-59
2023/06/13 01:28:33;;;;;;;;;;;;;;;13.36;100.00;99001.19;5160872;27;20047;-59
2023/06/13 01:31:01;;;;;;;8.20;2.28;;;;;;;13.72;100.00;99014.28;5160230;27;19995;-59
2023/06/13 01:33:29;;;;;;;6.75;2.72;;;;;;;13.46;100.00;99001.59;5160541;27;20400;-57
2023/06/13 01:35:55;;;;;;;8.27;2.88;;;;;;;13.52;100.00;99005.56;5159958;27;20395;-59
2023/06/13 01:38:22;;;;;;;8.55;2.63;;;;;;;13.43;100.00;99000.44;5160464;27;20061;-51
2023/06/13 01:40:48;;;;;;;9.85;2.60;;;;;;;13.29;100.00;98981.09;5160262;27;20042;-55
2023/06/13 01:43:14;;;;;;;3.63;2.38;;;;;;;13.15;100.00;98977.06;5160244;27;20358;-56
2023/06/13 01:45:41;;;;;;;4.32;2.75;;;;;;;13.27;100.00;98962.22;5160022;27;20062;-59
2023/06/13 01:48:12;;;;;;;4.90;2.53;;;;;;;13.14;100.00;98956.25;5159885;27;20408;-53
2023/06/13 01:50:47;;;;;;;6.03;2.60;;;;;;;13.34;100.00;98972.47;5160126;27;20145;-53
2023/06/13 01:53:23;;;;;;;3.47;2.70;;;;;;;13.13;100.00;98953.88;5159911;27;20061;-58
2023/06/13 01:55:53;;;;;;;8.25;2.25;;;;;;;13.13;100.00;98962.94;5159766;27;20137;-57
2023/06/13 01:58:24;;;;;;;4.38;2.75;;;;;;;13.11;100.00;98950.72;5158657;27;20051;-52
2023/06/13 02:00:55;;;;;;;4.10;2.72;;;;;;;13.03;100.00;98944.41;5160125;27;20058;-60
2023/06/13 02:03:21;;;;;;;4.00;2.60;;;;;;;13.15;100.00;98929.50;5159611;27;20141;-53
2023/06/13 02:05:47;;;;;;;8.75;2.33;;;;;;;12.94;100.00;98944.75;5159657;27;20047;-58
2023/06/13 02:08:13;;;;;;;4.20;2.72;;;;;;;13.18;100.00;98946.03;5159826;27;20047;-55
2023/06/13 02:10:39;;;;;;;4.15;2.30;;;;;;;13.13;100.00;98940.13;5159653;27;20054;-53
2023/06/13 02:13:05;;;;;;;3.70;2.80;;;;;;;13.07;100.00;98936.94;5159820;27;20051;-50
2023/06/13 02:15:31;;;;;;;3.65;2.40;;;;;;;13.12;100.00;98964.09;5159616;27;20042;-57
2023/06/13 02:17:58;;;;;;;3.00;2.60;;;;;;;13.19;100.00;98952.31;5159827;27;20079;-59
2023/06/13 02:20:24;;;;;;;3.58;2.28;;;;;;;13.05;100.00;98930.25;5159465;27;20130;-57
2023/06/13 02:22:50;;;;;;;4.53;2.30;;;;;;;13.11;100.00;98940.50;5159770;27;20323;-59
2023/06/13 02:25:16;;;;;;;7.85;2.83;;;;;;;13.08;100.00;98963.28;5159287;27;20088;-51
2023/06/13 02:27:42;;;;;;;5.75;2.33;;;;;;;13.15;100.00;98949.56;5159789;27;20396;-51
2023/06/13 02:30:08;;;;;;;14.75;2.70;;;;;;;13.30;100.00;98963.41;5159131;27;20432;-55
2023/06/13 02:32:36;;;;;;;11.25;2.13;;;;;;;13.16;100.00;98959.41;5159429;27;20046;-52
2023/06/13 02:35:03;;;;;;;6.50;2.92;;;;;;;13.23;100.00;98966.09;5159374;27;20077;-59
2023/06/13 02:37:29;;;;;;;5.03;2.60;;;;;;;13.22;100.00;98957.03;5159241;27;20078;-53
2023/06/13 02:39:55;;;;;;;4.47;2.50;;;;;;;13.09;100.00;98964.06;5159406;27;20082;-51
2023/06/13 02:42:21;;;;;;;4.38;2.10;;;;;;;13.04;100.00;98956.19;5159109;27;20420;-51
2023/06/13 02:44:47;;;;;;;3.97;2.65;;;;;;;13.17;100.00;98968.44;5159349;27;20078;-52
2023/06/13 02:47:13;;;;;;;7.65;2.75;;;;;;;13.35;100.00;98988.59;5159015;27;20380;-57
2023/06/13 02:49:38;;;;;;;8.23;2.70;;;;;;;13.26;100.00;98990.13;5159190;27;20416;-59
2023/06/13 02:52:06;;;;;;;4.07;2.42;;;;;;;13.51;100.00;98980.00;5158995;27;20088;-59
2023/06/13 02:54:32;;;;;;;4.38;2.70;;;;;;;13.77;100.00;99025.72;5159298;27;20125;-56
2023/06/13 02:56:58;;;;;;;4.22;2.70;;;;;;;13.82;100.00;99043.84;5158976;27;20163;-53
2023/06/13 02:59:26;;;;;;;7.22;2.95;;;;;;;13.75;100.00;99041.84;5159219;27;20093;-54
2023/06/13 03:01:52;;;;;;;5.70;2.70;;;;;;;14.02;100.00;99052.53;5158332;27;20383;-57
2023/06/13 03:04:18;;;;;;;13.68;2.78;;;;;;;13.86;100.00;99074.94;5158238;27;20096;-58
2023/06/13 03:06:44;;;;;;;4.97;2.50;;;;;;;14.28;100.00;99101.03;5158920;27;20061;-52
2023/06/13 03:09:11;;;;;;;6.63;3.78;;;;;;;14.57;100.00;99099.16;5158439;27;20059;-53
2023/06/13 03:11:37;;;;;;;2.28;2.08;;;;;;;14.56;100.00;99133.41;5158768;27;20137;-56
2023/06/13 03:14:03;;;;;;;2.72;2.20;;;;;;;14.46;100.00;99136.91;5158640;27;20121;-58
2023/06/13 03:16:29;;;;;;;3.67;2.13;;;;;;;14.36;100.00;99153.06;5158750;27;20147;-60
2023/06/13 03:18:55;;;;;;;3.22;2.72;;;;;;;14.42;100.00;99131.41;5158487;27;20065;-58
2023/06/13 03:21:21;;;;;;;8.23;2.40;;;;;;;14.10;100.00;99114.78;5158849;27;20089;-55
2023/06/13 03:23:47;;;;;;;5.32;2.75;;;;;;;14.32;100.00;99121.13;5158688;27;20060;-57
2023/06/13 03:26:16;;;;;;;6.80;2.78;;;;;;;14.35;100.00;99121.13;5158803;27;20050;-60
2023/06/13 03:28:42;;;;;;;5.30;2.42;;;;;;;14.34;100.00;99107.75;5158496;27;20046;-59
2023/06/13 03:31:08;;;;;;;6.65;2.70;;;;;;;13.99;100.00;99114.75;5158170;27;20058;-55
2023/06/13 03:33:34;;;;;;;3.75;2.13;;;;;;;14.03;100.00;99095.47;5158509;27;20054;-53
2023/06/13 03:36:02;;;;;;;6.80;2.70;;;;;;;14.04;100.00;99097.06;5158233;27;20443;-51
2023/06/13 03:38:28;;;;;;;2.58;2.15;;;;;;;14.11;100.00;99105.34;5158528;27;20062;-57
2023/06/13 03:40:54;;;;;;;6.32;3.05;;;;;;;13.97;100.00;99103.34;5158284;27;20043;-57
2023/06/13 03:43:21;;;;;;;6.07;3.15;;;;;;;14.60;100.00;99128.72;5158463;27;20060;-52
2023/06/13 03:45:48;;;;;;;4.53;2.33;;;;;;;14.43;100.00;99127.47;5158176;27;20043;-51
2023/06/13 03:48:14;;;;;;;8.73;2.70;;;;;;;14.92;100.00;99152.75;5158113;27;20042;-57
2023/06/13 03:50:40;;;;;;;3.17;2.10;;;;;;;14.84;100.00;99157.50;5157901;27;20046;-58
2023/06/13 03:53:06;;;;;;;6.53;2.58;;;;;;;14.62;100.00;99148.41;5158412;27;20046;-53
2023/06/13 03:55:32;;;;;;;2.50;2.20;;;;;;;14.77;100.00;99168.53;5157830;27;20111;-51
2023/06/13 03:57:58;;;;;;;3.15;2.53;;;;;;;15.20;100.00;99174.84;5158107;27;20065;-59
2023/06/13 04:00:25;;;;;;;4.18;2.30;;;;;;;15.93;100.00;99204.75;5158150;27;20051;-60
2023/06/13 04:02:52;;;;;;;4.82;2.40;;;;;;;16.01;100.00;99227.63;5158070;27;20051;-59
2023/06/13 04:05:18;;;;;;;9.43;3.60;;;;;;;17.29;100.00;99250.25;5157951;27;20050;-53
2023/06/13 04:07:44;;;;;;;3.03;2.28;;;;;;;17.66;100.00;99277.28;5157802;27;20519;-59
2023/06/13 04:10:11;;;;;;;8.38;2.85;;;;;;;17.57;100.00;99285.28;5158024;27;20061;-56
2023/06/13 04:12:37;;;;;;;6.40;3.00;;;;;;;17.34;98.48;99291.41;5157804;27;20042;-58
2023/06/13 04:15:03;;;;;;;5.10;2.55;;;;;;;16.51;100.00;99281.97;5158083;27;20053;-60
2023/06/13 04:17:32;;;;;;;7.15;2.50;;;;;;;16.19;100.00;99249.66;5157755;27;20042;-59
2023/06/13 04:19:57;;;;;;;6.15;2.22;;;;;;;16.15;100.00;99246.13;5157978;27;20054;-59
2023/06/13 04:22:23;;;;;;;7.78;2.38;;;;;;;16.50;100.00;99261.03;5159613;27;20055;-60
2023/06/13 04:24:50;;;;;;;3.20;2.10;;;;;;;16.72;100.00;99259.72;5161709;27;20042;-57
2023/06/13 04:27:19;;;;;;;4.45;2.70;;;;;;;17.01;100.00;99249.28;5161408;27;20046;-55
2023/06/13 04:29:48;;;;;;;7.28;2.30;;;;;;;17.21;100.00;99268.94;5161251;27;20123;-53
2023/06/13 04:32:17;;;;;;;5.10;2.22;;;;;;;17.20;100.00;99272.13;5161485;27;20057;-51
2023/06/13 04:34:44;;;;;;;3.88;2.40;;;;;;;16.95;100.00;99270.28;5161235;27;20078;-55
2023/06/13 04:37:11;;;;;;;4.43;2.50;;;;;;;17.27;100.00;99260.97;5161120;27;20427;-54
2023/06/13 04:39:37;;;;;;;10.98;3.42;;;;;;;17.20;100.00;99272.13;5160857;27;20082;-52
2023/06/13 04:42:03;;;;;;;3.70;2.65;;;;;;;16.87;100.00;99269.56;5161348;27;20050;-55
2023/06/13 04:44:29;;;;;;;7.95;2.45;;;;;;;16.62;100.00;99253.03;5160962;27;20095;-52
2023/06/13 04:46:57;;;;;;;6.03;1.90;;;;;;;16.44;100.00;99244.84;5161223;27;20134;-56
2023/06/13 04:49:23;;;;;;;8.07;3.58;;;;;;;17.23;100.00;99258.25;5160416;27;20051;-54
2023/06/13 04:51:50;;;;;;;8.05;3.08;;;;;;;18.13;100.00;99291.50;5161022;27;20293;-54
2023/06/13 04:54:16;;;;;;;7.68;2.17;;;;;;;17.98;95.14;99307.50;5160924;27;20074;-55
2023/06/13 04:56:43;;;;;;;6.80;3.67;;;;;;;18.30;94.47;99298.06;5160782;27;20054;-54
2023/06/13 04:59:09;;;;;;;4.25;2.50;;;;;;;19.04;92.18;99306.66;5160597;27;20435;-53
2023/06/13 05:01:37;;;;;;;11.68;2.55;;;;;;;19.84;84.87;99323.72;5160354;27;20078;-53
2023/06/13 05:04:03;;;;;;;4.10;2.50;;;;;;;20.06;82.05;99315.75;5160570;27;20137;-61
2023/06/13 05:06:30;;;;;;;8.43;2.17;;;;;;;20.29;79.08;99320.50;5160483;27;20090;-56
2023/06/13 05:08:56;;;;;;;6.25;2.40;;;;;;;20.63;76.56;99318.28;5160609;27;20451;-54
2023/06/13 05:11:22;;;;;;;9.10;2.70;;;;;;;20.96;74.57;99318.38;5160474;27;20050;-52
2023/06/13 05:13:48;;;;;;;4.68;1.92;;;;;;;20.27;74.21;99323.72;5160738;27;20122;-55
2023/06/13 05:16:14;;;;;;;2.78;2.30;;;;;;;21.06;72.90;99311.78;5160254;27;20477;-56
2023/06/13 05:18:41;;;;;;;5.10;2.25;;;;;;;21.66;70.93;99316.38;5160979;27;20103;-59
2023/06/13 05:21:07;;;;;;;2.92;2.33;;;;;;;21.11;71.93;99322.41;5160095;27;20054;-59
2023/06/13 05:23:33;;;;;;;13.63;3.65;;;;;;;21.84;70.74;99319.53;5160278;27;20050;-62
2023/06/13 05:26:00;;;;;;;3.75;2.20;;;;;;;21.80;67.71;99324.41;5160123;27;20061;-61
2023/06/13 05:28:26;;;;;;;11.63;3.85;;;;;;;22.61;66.90;99320.66;5160187;27;20050;-59
2023/06/13 05:30:52;;;;;;;5.95;2.90;;;;;;;21.65;69.28;99328.78;5160066;27;20119;-56
2023/06/13 05:33:19;;;;;;;4.28;2.70;;;;;;;22.67;65.90;99335.66;5158673;27;20042;-56
2023/06/13 05:35:45;;;;;;;9.27;2.40;;;;;;;22.62;64.34;99343.78;5160195;27;20061;-59
2023/06/13 05:38:11;;;;;;;11.63;3.40;;;;;;;23.11;64.14;99335.97;5159953;27;20086;-60
2023/06/13 05:40:37;;;;;;;8.18;3.00;;;;;;;22.47;64.70;99330.22;5160178;27;20131;-55
2023/06/13 05:43:04;;;;;;;5.80;2.92;;;;;;;22.98;63.11;99333.16;5159847;27;20043;-55
2023/06/13 05:45:30;;;;;;;5.57;2.92;;;;;;;24.10;61.06;99331.19;5160084;27;20047;-60
2023/06/13 05:47:56;;;;;;;6.45;2.85;;;;;;;22.33;63.32;99332.63;5159682;27;20141;-58
2023/06/13 05:50:22;;;;;;;7.95;2.80;;;;;;;22.33;62.62;99329.84;5160108;27;20098;-61
2023/06/13 05:52:48;;;;;;;3.50;2.60;;;;;;;23.62;61.37;99330.34;5159787;27;20097;-56
2023/06/13 05:55:13;;;;;;;6.28;2.50;;;;;;;22.60;59.85;99329.50;5159796;27;20114;-57
2023/06/13 05:57:40;;;;;;;6.05;2.80;;;;;;;23.68;59.18;99331.38;5159800;27;20042;-56
2023/06/13 06:00:09;;;;;;;8.35;2.75;;;;;;;23.02;60.97;99327.47;5159624;27;20055;-65
2023/06/13 06:02:35;;;;;;;8.57;2.92;;;;;;;23.98;58.79;99328.41;5159849;27;20053;-58
2023/06/13 06:05:01;;;;;;;8.68;2.90;;;;;;;24.11;58.18;99317.97;5159780;27;20065;-61
2023/06/13 06:07:27;;;;;;;9.32;3.17;;;;;;;23.44;57.86;99327.38;5160018;27;20331;-61
2023/06/13 06:09:53;;;;;;;5.07;2.53;;;;;;;24.35;57.16;99329.53;5159620;27;20047;-61
2023/06/13 06:12:19;;;;;;;12.20;5.60;;;;;;;23.87;58.14;99328.78;5159936;27;20042;-59
2023/06/13 06:14:45;;;;;;;6.65;3.13;;;;;;;24.18;55.84;99332.50;5160327;27;20503;-57
2023/06/13 06:17:12;;;;;;;4.22;2.50;;;;;;;23.52;57.42;99325.91;5160554;27;20082;-60
2023/06/13 06:19:37;;;;;;;11.65;2.72;;;;;;;24.01;56.80;99324.72;5159042;27;20050;-56
2023/06/13 06:22:04;;;;;;;9.70;2.75;;;;;;;24.10;55.80;99317.19;5159188;27;20274;-56
2023/06/13 06:24:30;;;;;;;3.88;2.65;;;;;;;23.48;56.65;99326.00;5159002;27;20146;-56
2023/06/13 06:26:56;;;;;;;8.90;2.65;;;;;;;23.21;58.23;99322.91;5159138;27;20145;-56
2023/06/13 06:29:22;;;;;;;8.77;3.78;;;;;;;22.85;57.92;99323.16;5158937;27;20050;-61
2023/06/13 06:31:48;;;;;;;7.97;2.60;;;;;;;22.57;56.89;99308.81;5158981;27;20398;-63
2023/06/13 06:34:15;;;;;;;7.82;3.10;;;;;;;21.49;60.69;99319.19;5158968;27;20047;-62
2023/06/13 06:36:40;;;;;;;4.50;1.88;;;;;;;23.41;57.87;99319.88;5158617;27;20053;-58
2023/06/13 06:39:06;;;;;;;5.88;2.67;;;;;;;23.00;56.26;99313.94;5159070;27;20141;-60
2023/06/13 06:41:32;;;;;;;6.32;2.80;;;;;;;22.27;58.51;99316.41;5158612;27;20057;-56
2023/06/13 06:43:58;;;;;;;7.82;1.58;;;;;;;23.90;57.38;99309.06;5158619;27;20046;-56
2023/06/13 06:46:24;;;;;;;6.25;2.70;;;;;;;24.60;55.71;99309.81;5158466;27;20047;-57
2023/06/13 06:48:50;;;;;;;10.35;2.63;;;;;;;24.30;53.19;99318.91;5159010;27;20051;-59
2023/06/13 06:51:17;;;;;;;5.65;2.20;;;;;;;25.18;53.48;99322.44;5158780;27;20122;-57
2023/06/13 06:53:44;;;;;;;9.18;2.75;;;;;;;24.36;54.65;99317.09;5158635;27;20082;-63
2023/06/13 06:56:09;;;;;;;3.92;2.10;;;;;;;24.06;55.63;99307.31;5158754;27;20046;-57
2023/06/13 06:58:36;;;;;;;5.13;2.20;;;;;;;25.34;52.84;99302.56;5158645;27;20138;-55
2023/06/13 07:01:02;;;;;;;8.27;2.65;;;;;;;24.86;53.47;99302.03;5158574;27;20055;-59
2023/06/13 07:03:28;;;;;;;9.65;2.78;;;;;;;25.62;52.07;99301.88;5158681;27;20157;-53
2023/06/13 07:05:55;;;;;;;4.05;2.30;;;;;;;25.29;52.95;99294.78;5158565;27;20203;-57
2023/06/13 07:08:21;;;;;;;8.48;2.83;;;;;;;25.28;50.95;99286.81;5158285;27;20068;-55
2023/06/13 07:10:47;;;;;;;12.10;2.53;;;;;;;25.94;49.87;99289.31;5158609;27;20092;-56
2023/06/13 07:13:13;;;;;;;5.75;2.15;;;;;;;25.86;49.60;99299.28;5158161;27;20051;-54
2023/06/13 07:15:39;;;;;;;4.63;2.33;;;;;;;25.81;50.04;99279.00;5158586;27;20133;-53
2023/06/13 07:18:06;;;;;;;7.07;2.38;;;;;;;26.35;49.49;99287.13;5158216;27;20111;-61
2023/06/13 07:20:32;;;;;;;5.85;2.35;;;;;;;26.43;49.79;99300.38;5158303;27;20111;-59
2023/06/13 07:22:58;;;;;;;9.23;2.30;;;;;;;25.85;49.04;99300.53;5158372;27;20042;-55
2023/06/13 07:25:24;;;;;;;4.40;1.83;;;;;;;25.25;48.24;99290.53;5158287;27;20068;-55
2023/06/13 07:27:50;;;;;;;4.15;1.85;;;;;;;24.37;48.96;99297.00;5158370;27;20052;-58
2023/06/13 07:30:16;;;;;;;9.52;2.20;;;;;;;23.97;48.53;99305.25;5158196;27;20320;-55
2023/06/13 07:32:42;;;;;;;4.88;2.38;;;;;;;23.86;49.17;99308.41;5158260;27;20082;-62
2023/06/13 07:35:09;;;;;;;5.18;2.17;;;;;;;24.25;49.11;99297.84;5157933;27;20047;-60
2023/06/13 07:37:36;;;;;;;4.97;2.10;;;;;;;24.67;48.90;99285.56;5158247;27;20111;-62
2023/06/13 07:40:04;;;;;;;6.05;2.45;;;;;;;24.31;49.31;99307.22;5158258;27;20141;-56
2023/06/13 07:42:31;;;;;;;4.15;2.17;;;;;;;24.10;49.86;99294.00;5158187;27;20050;-62
2023/06/13 07:44:56;;;;;;;5.90;2.00;;;;;;;24.84;49.17;99293.28;5157720;27;20047;-61
2023/06/13 07:47:22;;;;;;;4.57;2.17;;;;;;;24.95;49.53;99287.25;5158167;27;20050;-57
2023/06/13 07:49:48;;;;;;;4.95;2.30;;;;;;;24.53;49.89;99278.47;5157508;27;20137;-57
2023/06/13 07:52:14;;;;;;;5.10;2.35;;;;;;;25.52;48.40;99292.63;5157890;27;20437;-54
2023/06/13 07:54:40;;;;;;;7.60;2.05;;;;;;;25.56;48.37;99284.88;5157897;27;20141;-55
2023/06/13 07:57:06;;;;;;;5.97;2.00;;;;;;;25.77;48.36;99275.53;5156639;27;20058;-62
2023/06/13 07:59:33;;;;;;;4.82;2.22;;;;;;;25.99;47.26;99266.22;5157749;27;20324;-59
2023/06/13 08:01:59;;;;;;;6.35;2.00;;;;;;;25.25;48.12;99280.09;5157349;27;20137;-60
2023/06/13 08:04:25;;;;;;;5.95;2.33;;;;;;;24.72;48.06;99282.94;5157697;27;20103;-58
2023/06/13 08:06:51;;;;;;;8.68;1.90;;;;;;;24.14;47.96;99266.66;5157552;27;20103;-54
2023/06/13 08:09:17;;;;;;;8.48;1.92;;;;;;;26.09;46.67;99262.19;5157741;27;20141;-54
2023/06/13 08:11:44;;;;;;;9.68;2.35;;;;;;;25.94;47.37;99258.41;5157492;27;20099;-52
2023/06/13 08:14:12;;;;;;;7.95;2.20;;;;;;;25.62;46.91;99266.13;5157809;27;20050;-58
2023/06/13 08:16:39;;;;;;;4.65;2.22;;;;;;;25.38;46.68;99265.16;5157257;27;20057;-53
2023/06/13 08:19:05;;;;;;;8.63;2.70;;;;;;;26.37;46.29;99268.53;5157652;27;20065;-55
2023/06/13 08:21:32;;;;;;;8.15;2.05;;;;;;;27.20;46.04;99263.50;5157206;27;20468;-58
2023/06/13 08:23:59;;;;;;;6.00;1.90;;;;;;;25.42;46.24;99272.19;5157445;27;20437;-62
2023/06/13 08:26:25;;;;;;;3.60;1.95;;;;;;;25.32;46.58;99264.97;5157547;27;20055;-60
2023/06/13 08:28:51;;;;;;;6.57;2.78;;;;;;;24.98;47.95;99263.13;5157332;27;20134;-57
2023/06/13 08:31:23;;;;;;;5.68;2.10;;;;;;;25.39;47.77;99261.91;5157422;27;20463;-54
2023/06/13 08:33:50;;;;;;;6.50;2.53;;;;;;;25.38;49.03;99251.91;5157257;27;20331;-62
2023/06/13 08:36:16;;;;;;;5.97;2.22;;;;;;;24.59;49.40;99249.41;5157251;27;20324;-62
2023/06/13 08:38:42;;;;;;;7.78;1.95;;;;;;;23.83;50.00;99250.53;5156723;27;20146;-62
2023/06/13 08:41:08;;;;;;;7.65;2.20;;;;;;;24.01;50.42;99258.28;5157420;27;20051;-62
2023/06/13 08:43:34;;;;;;;4.32;2.20;;;;;;;23.03;50.61;99250.75;5156903;27;20057;-53
2023/06/13 08:46:00;;;;;;;24.95;3.08;;;;;;;22.82;51.47;99248.59;5157156;27;20046;-59
2023/06/13 08:48:27;;;;;;;4.15;1.95;;;;;;;22.60;50.49;99265.22;5157322;27;20051;-54
2023/06/13 08:50:55;;;;;;;4.72;2.10;;;;;;;23.23;50.37;99250.53;5158009;27;20054;-63
2023/06/13 08:53:22;;;;;;;4.68;2.00;;;;;;;22.64;51.11;99249.13;5157764;27;20103;-55
2023/06/13 08:55:49;;;;;;;5.22;1.60;;;;;;;22.28;51.74;99252.97;5156830;27;20057;-55
2023/06/13 08:58:18;;;;;;;4.72;1.73;;;;;;;23.15;51.76;99246.38;5157159;27;20081;-55
2023/06/13 09:00:47;;;;;;;6.07;1.90;;;;;;;22.17;52.41;99247.69;5156893;27;20533;-51
2023/06/13 09:03:17;;;;;;;8.75;1.98;;;;;;;23.22;51.13;99246.91;5156917;27;20135;-63
2023/06/13 09:05:43;;;;;;;2.55;1.75;;;;;;;23.78;50.70;99233.53;5156941;27;20369;-58
2023/06/13 09:08:11;;;;;;;8.65;2.47;;;;;;;23.51;50.13;99217.22;5158859;27;20057;-55
2023/06/13 09:10:38;;;;;;;7.28;2.40;;;;;;;23.47;50.35;99229.31;5160159;27;20046;-56
2023/06/13 09:13:05;;;;;;;6.35;2.47;;;;;;;23.57;50.44;99240.63;5160190;27;20055;-60
2023/06/13 09:15:31;;;;;;;3.72;2.13;;;;;;;23.33;51.28;99241.00;5160468;27;20115;-59
2023/06/13 09:17:59;;;;;;;4.38;2.30;;;;;;;24.11;50.30;99236.75;5161358;27;20073;-58
2023/06/13 09:20:27;;;;;;;6.70;2.20;;;;;;;24.43;50.84;99221.59;5161517;27;20051;-64
2023/06/13 09:22:53;;;;;;;3.88;2.35;;;;;;;23.92;50.26;99242.19;5160351;27;20053;-63
2023/06/13 09:25:22;;;;;;;3.92;1.63;;;;;;;23.08;49.84;99238.22;5160416;27;20361;-57
2023/06/13 09:27:48;;;;;;;5.75;2.08;;;;;;;23.53;49.21;99234.38;5160167;27;20050;-60
2023/06/13 09:30:15;;;;;;;4.50;2.30;;;;;;;24.13;49.20;99248.28;5160362;27;20057;-61
2023/06/13 09:32:47;;;;;;;5.32;2.10;;;;;;;23.32;49.38;99231.03;5159998;27;20448;-61
2023/06/13 09:35:13;;;;;;;6.15;2.35;;;;;;;23.32;49.00;99225.44;5160510;27;20050;-56
2023/06/13 09:37:39;;;;;;;4.07;1.90;;;;;;;23.86;48.96;99226.44;5160091;27;20085;-62
2023/06/13 09:40:09;;;;;;;8.98;2.15;;;;;;;23.37;48.69;99238.84;5160367;27;20051;-61
2023/06/13 09:42:36;;;;;;;4.88;1.98;;;;;;;23.36;47.69;99242.91;5159843;27;20454;-57
2023/06/13 09:45:06;;;;;;;4.22;1.80;;;;;;;24.59;47.94;99224.19;5160025;27;20387;-59
2023/06/13 09:47:34;;;;;;;9.23;2.00;;;;;;;24.61;46.92;99232.09;5159811;27;20086;-57
2023/06/13 09:50:01;;;;;;;7.30;2.17;;;;;;;23.41;47.32;99233.16;5159485;27;20097;-59
2023/06/13 09:52:30;;;;;;;7.75;1.90;;;;;;;24.14;47.53;99247.03;5159978;27;20053;-55
2023/06/13 09:54:56;;;;;;;5.82;2.00;;;;;;;24.49;47.78;99222.56;5159785;27;20050;-58
2023/06/13 09:57:23;;;;;;;7.93;2.47;;;;;;;23.45;49.49;99226.19;5159809;27;20043;-56
2023/06/13 09:59:51;;;;;;;4.72;2.33;;;;;;;22.96;49.91;99220.22;5159520;27;20046;-59
2023/06/13 10:02:19;;;;;;;7.07;2.10;;;;;;;23.15;51.00;99224.00;5159782;27;20054;-61
2023/06/13 10:04:49;;;;;;;4.82;1.73;;;;;;;23.36;49.80;99206.53;5159397;27;20305;-58
2023/06/13 10:07:16;;;;;;;3.20;1.42;;;;;;;23.89;49.85;99212.31;5159638;27;20404;-54
2023/06/13 10:09:42;;;;;;;5.55;2.00;;;;;;;22.93;50.25;99223.91;5159555;27;20137;-60
2023/06/13 10:12:11;;;;;;;4.45;2.70;;;;;;;22.22;50.77;99210.03;5158886;27;20050;-58
2023/06/13 10:14:40;;;;;;;6.00;2.60;;;;;;;22.90;50.61;99210.81;5159169;27;20415;-64
2023/06/13 10:17:11;;;;;;;6.65;1.92;;;;;;;22.83;50.85;99209.03;5159134;27;20073;-55
2023/06/13 10:19:40;;;;;;;3.97;1.80;;;;;;;21.88;51.07;99219.72;5158554;27;20055;-62
2023/06/13 10:22:08;;;;;;;4.97;1.70;;;;;;;22.27;50.96;99218.66;5159280;27;20446;-57
2023/06/13 10:24:35;;;;;;;4.28;2.35;;;;;;;22.81;51.20;99205.88;5159667;27;20141;-64
2023/06/13 10:27:03;;;;;;;7.80;2.95;;;;;;;23.69;50.64;99201.44;5159463;27;20145;-58
2023/06/13 10:29:49;;;;;;;4.75;2.10;;;;;;;24.06;50.01;99196.13;5159939;27;20074;-65
2023/06/13 10:32:35;;;;;;;3.53;1.63;;;;;;;24.07;49.65;99208.09;5159584;27;20061;-65
2023/06/13 10:35:16;;;;;;;2.00;1.70;;;;;;;22.89;49.48;99209.22;5159035;27;20050;-53
2023/06/13 10:38:14;;;;;;;11.70;1.75;;;;;;;23.35;50.38;99181.78;5159272;27;20042;-54
2023/06/13 10:41:12;;;;;;;4.57;2.60;;;;;;;23.96;49.47;99194.50;5158674;27;20055;-58
2023/06/13 10:43:45;;;;;;;2.65;2.45;;;;;;;23.70;49.79;99183.41;5158373;27;20137;-57
2023/06/13 10:46:11;;;;;;;6.22;2.30;;;;;;;22.85;50.08;99203.75;5158688;27;20050;-54
2023/06/13 10:48:43;;;;;;;5.25;2.40;;;;;;;23.33;49.39;99184.28;5158379;27;20138;-61
2023/06/13 10:51:11;;;;;;;6.97;2.22;;;;;;;23.36;49.86;99186.94;5158680;27;20058;-57
2023/06/13 10:53:37;;;;;;;1.95;1.60;;;;;;;23.92;48.86;99193.81;5158509;27;20153;-58
2023/06/13 10:56:06;;;;;;;7.15;2.00;;;;;;;24.00;49.35;99177.56;5158748;27;20047;-52
2023/06/13 10:58:34;;;;;;;4.70;1.60;;;;;;;23.74;49.97;99179.69;5158594;27;20083;-53
2023/06/13 11:01:26;;;;;;;12.60;1.85;;;;;;;23.87;50.25;99178.38;5158880;27;20058;-56
2023/06/13 11:03:53;;;;;;;2.88;2.15;;;;;;;23.07;50.80;99189.13;5158618;27;20139;-59
2023/06/13 11:06:19;;;;;;;5.38;2.20;;;;;;;22.99;49.70;99180.97;5158598;27;20071;-60
2023/06/13 11:08:45;;;;;;;3.50;1.77;;;;;;;21.99;51.06;99166.41;5158647;27;20082;-59
2023/06/13 11:11:11;;;;;;;4.43;2.08;;;;;;;22.22;51.86;99166.16;5158246;27;20097;-55
2023/06/13 11:13:37;;;;;;;6.05;2.30;;;;;;;22.80;51.85;99165.19;5158521;27;20137;-53
2023/06/13 11:16:20;;;;;;;2.88;1.60;;;;;;;22.55;51.13;99171.56;5158397;27;20042;-55
2023/06/13 11:18:46;;;;;;;4.03;1.80;;;;;;;22.04;51.51;99165.88;5159088;27;20046;-54
2023/06/13 11:21:13;;;;;;;3.83;1.55;;;;;;;22.92;51.41;99166.41;5158060;27;20047;-58
2023/06/13 11:23:48;;;;;;;7.03;2.50;;;;;;;22.97;50.64;99158.28;5158305;27;20043;-60
2023/06/13 11:26:19;;;;;;;2.20;1.60;;;;;;;22.40;49.75;99154.47;5160560;27;20062;-58
2023/06/13 11:28:46;;;;;;;2.28;1.35;;;;;;;22.60;50.35;99153.47;5159862;27;20042;-58
2023/06/13 11:31:13;;;;;;;2.60;1.90;;;;;;;22.68;50.82;99168.75;5158121;27;20114;-58